createdAt,value
2023-01-12T00:03:05.526Z,1.1
2023-01-12T00:07:56.611Z,1.2
2023-01-12T00:12:47.130Z,1.2
2023-01-12T00:17:54.878Z,1.2
2023-01-12T00:23:17.116Z,1.2
2023-01-12T00:28:08.397Z,1.2
2023-01-12T00:33:30.984Z,1.3
2023-01-12T00:38:53.554Z,1.3
2023-01-12T00:44:21.079Z,1.3
2023-01-12T00:49:43.492Z,1.3
2023-01-12T00:55:06.681Z,1.3
2023-01-12T01:00:28.884Z,1.3
2023-01-12T01:05:52.191Z,1.3
2023-01-12T01:10:43.703Z,1.3
2023-01-12T01:15:35.636Z,1.3
2023-01-12T01:20:42.892Z,1.3
2023-01-12T01:25:50.012Z,1.3
2023-01-12T01:30:41.054Z,1.3
2023-01-12T01:35:31.596Z,1.3
2023-01-12T01:40:54.391Z,1.3
2023-01-12T01:46:16.683Z,1.3
2023-01-12T01:51:38.553Z,1.3
2023-01-12T01:56:45.962Z,1.3
2023-01-12T02:02:08.237Z,1.3
2023-01-12T02:07:19.224Z,1.3
2023-01-12T02:12:11.392Z,1.3
2023-01-12T02:17:33.916Z,1.3
2023-01-12T02:22:55.205Z,1.3
2023-01-12T02:28:18.223Z,1.3
2023-01-12T02:33:25.275Z,1.3
2023-01-12T02:38:47.029Z,1.3
2023-01-12T02:44:12.828Z,1.3
2023-01-12T02:49:34.001Z,1.3
2023-01-12T02:54:55.574Z,1.3
2023-01-12T03:00:18.809Z,1.3
2023-01-12T03:05:41.234Z,1.3
2023-01-12T03:11:03.422Z,1.3
2023-01-12T03:16:10.827Z,1.3
2023-01-12T03:21:32.980Z,1.3
2023-01-12T03:26:39.620Z,1.3
2023-01-12T03:32:02.740Z,1.3
2023-01-12T03:37:24.913Z,1.3
2023-01-12T03:42:47.644Z,1.3
2023-01-12T03:48:10.940Z,1.3
2023-01-12T03:53:32.345Z,1.3
2023-01-12T03:58:53.523Z,1.4
2023-01-12T04:04:17.596Z,1.4
2023-01-12T04:09:24.452Z,1.4
2023-01-12T04:14:31.239Z,1.4
2023-01-12T04:19:54.510Z,1.4
2023-01-12T04:25:16.523Z,1.4
2023-01-12T04:30:07.108Z,1.4
2023-01-12T04:35:30.356Z,1.4
2023-01-12T04:40:52.667Z,1.4
2023-01-12T04:46:16.918Z,1.4
2023-01-12T04:51:39.876Z,1.4
2023-01-12T04:57:02.620Z,1.4
2023-01-12T05:02:25.355Z,1.4
2023-01-12T05:07:50.937Z,1.4
2023-01-12T05:13:12.674Z,1.4
2023-01-12T05:18:35.150Z,1.5
2023-01-12T05:23:45.780Z,1.5
2023-01-12T05:29:07.482Z,1.5
2023-01-12T05:34:31.532Z,1.5
2023-01-12T05:39:39.293Z,1.5
2023-01-12T05:44:46.122Z,1.5
2023-01-12T05:50:07.382Z,1.5
2023-01-12T05:55:30.113Z,1.6
2023-01-12T06:00:37.095Z,1.6
2023-01-12T06:05:45.272Z,1.6
2023-01-12T06:10:54.102Z,1.6
2023-01-12T06:16:01.348Z,1.6
2023-01-12T06:21:24.033Z,1.6
2023-01-12T06:26:47.008Z,1.7
2023-01-12T06:32:08.928Z,1.8
2023-01-12T06:37:39.361Z,1.9
2023-01-12T06:43:02.491Z,1.9
2023-01-12T06:48:25.028Z,2.1
2023-01-12T06:53:46.997Z,2.2
2023-01-12T06:59:10.057Z,2.3
2023-01-12T07:04:33.030Z,2.4
2023-01-12T07:09:55.474Z,2.6
2023-01-12T07:15:21.338Z,2.8
2023-01-12T07:20:43.977Z,2.9
2023-01-12T07:26:09.123Z,3.2
2023-01-12T07:31:32.158Z,3.5
2023-01-12T07:36:54.180Z,3.9
2023-01-12T07:42:18.933Z,4.6
2023-01-12T07:47:42.324Z,5.4
2023-01-12T07:53:06.554Z,6.2
2023-01-12T07:58:28.736Z,6.9
2023-01-12T08:03:55.241Z,7.6
2023-01-12T08:09:17.480Z,8.4
2023-01-12T08:14:39.868Z,9.1
2023-01-12T08:20:03.063Z,9.9
2023-01-12T08:25:26.886Z,10.4
2023-01-12T08:30:49.553Z,10.3
2023-01-12T08:36:30.540Z,10.5
2023-01-12T08:41:53.871Z,10.8
2023-01-12T08:47:18.026Z,11.7
2023-01-12T08:52:44.933Z,12.5
2023-01-12T08:58:07.207Z,12.8
2023-01-12T09:03:15.792Z,12.7
2023-01-12T09:08:22.960Z,12.4
2023-01-12T09:13:46.061Z,12.1
2023-01-12T09:19:23.437Z,12
2023-01-12T09:24:48.816Z,11.9
2023-01-12T09:30:11.826Z,11.7
2023-01-12T09:35:44.469Z,11.6
2023-01-12T09:41:14.036Z,11.4
2023-01-12T09:46:21.372Z,11.3
2023-01-12T09:51:53.865Z,11.4
2023-01-12T09:57:28.264Z,11.5
2023-01-12T10:02:59.431Z,11.6
2023-01-12T10:08:32.840Z,11.8
2023-01-12T10:13:55.747Z,12.1
2023-01-12T10:19:21.539Z,12.4
2023-01-12T10:24:45.106Z,12.8
2023-01-12T10:30:08.162Z,13
2023-01-12T10:35:34.784Z,13.1
2023-01-12T10:40:57.090Z,13.1
2023-01-12T10:46:30.621Z,13.2
2023-01-12T10:51:53.099Z,13.2
2023-01-12T10:57:18.859Z,13.5
2023-01-12T11:02:43.434Z,14.3
2023-01-12T11:08:05.917Z,15.1
2023-01-12T11:13:30.688Z,15.6
2023-01-12T11:19:01.027Z,15.6
2023-01-12T11:24:23.984Z,15.6
2023-01-12T11:29:46.117Z,15.6
2023-01-12T11:34:54.540Z,15.8
2023-01-12T11:40:02.004Z,15.6
2023-01-12T11:45:08.406Z,15.6
2023-01-12T11:50:35.168Z,16.1
2023-01-12T11:55:59.833Z,16.6
2023-01-12T12:01:26.353Z,17.1
2023-01-12T12:06:49.623Z,17.3
2023-01-12T12:12:15.705Z,17.2
2023-01-12T12:22:48.171Z,16.8
2023-01-12T12:28:12.373Z,16.3
2023-01-12T12:33:34.991Z,16
2023-01-12T12:38:42.313Z,15.7
2023-01-12T12:44:05.610Z,15.3
2023-01-12T12:49:27.865Z,15.1
2023-01-12T12:54:53.964Z,14.8
2023-01-12T13:00:17.324Z,14.5
2023-01-12T13:05:09.655Z,14.1
2023-01-12T13:10:01.923Z,13.8
2023-01-12T13:15:11.911Z,13.4
2023-01-12T13:20:42.992Z,13.1
2023-01-12T13:26:06.306Z,12.6
2023-01-12T13:31:31.215Z,12.3
2023-01-12T13:36:25.643Z,11.8
2023-01-12T13:41:49.448Z,11.4
2023-01-12T13:47:00.162Z,11.1
2023-01-12T13:52:22.981Z,10.8
2023-01-12T13:57:47.249Z,10.5
2023-01-12T14:03:10.602Z,10.3
2023-01-12T14:08:46.267Z,10
2023-01-12T14:14:13.408Z,9.7
2023-01-12T14:19:58.488Z,9.4
2023-01-12T14:25:21.046Z,9.1
2023-01-12T14:30:44.349Z,8.9
2023-01-12T14:36:07.452Z,8.6
2023-01-12T14:41:29.803Z,8.3
2023-01-12T14:46:53.244Z,8
2023-01-12T14:52:15.984Z,7.7
2023-01-12T14:57:38.536Z,7.4
2023-01-12T15:03:02.380Z,7.1
2023-01-12T15:08:33.961Z,6.8
2023-01-12T15:13:56.002Z,6.4
2023-01-12T15:19:18.877Z,6.2
2023-01-12T15:24:41.772Z,5.9
2023-01-12T15:30:16.502Z,5.6
2023-01-12T15:35:52.689Z,5.3
2023-01-12T15:41:15.182Z,5.1
2023-01-12T15:46:37.312Z,4.9
2023-01-12T15:52:00.418Z,4.7
2023-01-12T15:57:22.762Z,4.5
2023-01-12T16:02:30.305Z,4.3
2023-01-12T16:09:00.683Z,4.1
2023-01-12T16:14:22.954Z,4
2023-01-12T16:19:30.096Z,3.9
2023-01-12T16:24:53.701Z,3.8
2023-01-12T16:30:17.659Z,3.6
2023-01-12T16:35:41.146Z,3.6
2023-01-12T16:41:04.508Z,3.5
2023-01-12T16:46:13.906Z,3.4
2023-01-12T16:51:21.625Z,3.3
2023-01-12T16:56:45.084Z,3.3
2023-01-12T17:02:13.656Z,3.2
2023-01-12T17:07:38.937Z,3.1
2023-01-12T17:12:34.924Z,3.1
2023-01-12T17:18:10.451Z,3.1
2023-01-12T17:23:21.161Z,3
2023-01-12T17:28:46.904Z,2.9
2023-01-12T17:33:41.926Z,2.9
2023-01-12T17:38:49.149Z,2.9
2023-01-12T17:44:13.008Z,2.9
2023-01-12T17:49:40.200Z,2.9
2023-01-12T17:54:48.154Z,2.8
2023-01-12T18:00:06.334Z,2.8
2023-01-12T18:05:30.737Z,2.8
2023-01-12T18:11:16.366Z,2.8
2023-01-12T18:16:41.225Z,2.8
2023-01-12T18:21:49.897Z,2.8
2023-01-12T18:27:14.937Z,2.8
2023-01-12T18:32:38.704Z,2.8
2023-01-12T18:38:04.709Z,2.8
2023-01-12T18:43:29.814Z,2.8
2023-01-12T18:48:55.480Z,2.8
2023-01-12T18:54:06.490Z,2.8
2023-01-12T18:59:34.840Z,2.7
2023-01-12T19:05:04.441Z,2.7
2023-01-12T19:10:33.608Z,2.6
2023-01-12T19:16:04.241Z,2.6
2023-01-12T19:21:34.037Z,2.6
2023-01-12T19:26:33.470Z,2.6
2023-01-12T19:31:50.759Z,2.5
2023-01-12T19:37:33.748Z,2.5
2023-01-12T19:43:04.798Z,2.4
2023-01-12T19:48:36.303Z,2.4
2023-01-12T19:54:08.717Z,2.4
2023-01-12T19:59:24.144Z,2.3
2023-01-12T20:04:50.930Z,2.3
2023-01-12T20:10:04.096Z,2.3
2023-01-12T20:15:32.723Z,2.3
2023-01-12T20:21:05.875Z,2.2
2023-01-12T20:26:04.069Z,2.2
2023-01-12T20:31:50.628Z,2.2
2023-01-12T20:37:17.157Z,2.1
2023-01-12T20:42:44.741Z,2.1
2023-01-12T20:48:11.881Z,2.1
2023-01-12T20:53:37.028Z,2.1
2023-01-12T20:59:01.004Z,2
2023-01-12T21:03:59.764Z,1.9
2023-01-12T21:09:36.097Z,1.9
2023-01-12T21:14:46.486Z,1.9
2023-01-12T21:20:09.863Z,1.8
2023-01-12T21:25:33.412Z,1.8
2023-01-12T21:30:56.613Z,1.8
2023-01-12T21:36:20.300Z,1.8
2023-01-12T21:41:27.807Z,1.8
2023-01-12T21:46:51.236Z,1.8
2023-01-12T21:52:00.759Z,1.8
2023-01-12T21:57:08.389Z,1.7
2023-01-12T22:02:16.293Z,1.8
2023-01-12T22:07:39.777Z,1.8
2023-01-12T22:12:46.825Z,1.8
2023-01-12T22:17:54.567Z,1.7
2023-01-12T22:23:16.836Z,1.7
2023-01-12T22:28:39.228Z,1.8
2023-01-12T22:34:02.012Z,1.8
2023-01-12T22:39:12.643Z,1.8
2023-01-12T22:44:34.634Z,1.8
2023-01-12T22:49:50.239Z,1.8
2023-01-12T22:55:13.367Z,1.8
2023-01-12T23:00:35.057Z,1.8
2023-01-12T23:05:43.306Z,1.8
2023-01-12T23:10:34.559Z,1.8
2023-01-12T23:15:57.217Z,1.8
2023-01-12T23:21:19.521Z,1.9
2023-01-12T23:26:41.746Z,1.9
2023-01-12T23:31:48.383Z,1.9
2023-01-12T23:36:54.587Z,1.9
2023-01-12T23:42:17.291Z,1.9
2023-01-12T23:47:38.508Z,1.9
2023-01-12T23:53:00.502Z,2
2023-01-12T23:58:22.822Z,2
